Time;durP1;ratioP1;P1;durP2;ratioP2;P2;SDS_P1;SDS_P2;PMS_P1;PMS_P2;Temp;Humidity;BMP_temperature;BMP_pressure;BME280_temperature;BME280_humidity;BME280_pressure;Samples;Min_cycle;Max_cycle;Signal;HPM_P1;HPM_P2
2021/12/09 00:00:16;;;;;;;;;;;;;;;;;;5033702;28;20152;-79
2021/12/09 00:02:42;;;;;;;11.00;6.63;;;;;;;;;;5036359;28;20648;-78
2021/12/09 00:05:12;;;;;;;12.82;6.90;;;;;;;;;;5033171;28;20075;-78
2021/12/09 00:07:41;;;;;;;10.65;6.63;;;;;;;;;;5038822;28;20036;-79
2021/12/09 00:10:09;;;;;;;8.90;6.55;;;;;;;;;;5019504;28;20073;-78
2021/12/09 00:12:35;;;;;;;11.10;6.95;;;;;;;;;;5033510;28;20040;-78
2021/12/09 00:15:01;;;;;;;13.30;7.03;;;;;;;;;;5014523;28;20028;-78
2021/12/09 00:17:27;;;;;;;14.80;7.18;;;;;;;;;;5016825;28;20482;-79
2021/12/09 00:19:53;;;;;;;10.50;6.63;;;;;;;;;;5021138;28;20075;-79
2021/12/09 00:22:19;;;;;;;8.40;6.75;;;;;;;;;;5031160;28;20972;-78
2021/12/09 00:24:46;;;;;;;10.73;6.85;;;;;;;;;;5023675;28;20048;-78
2021/12/09 00:27:18;;;;;;;13.63;7.22;;;;;;;;;;5019175;28;20076;-79
2021/12/09 00:29:44;;;;;;;11.65;6.70;;;;;;;;;;5035334;28;20402;-79
2021/12/09 00:32:10;;;;;;;10.90;7.38;;;;;;;;;;5014437;28;20738;-78
2021/12/09 00:34:40;;;;;;;10.68;6.63;;;;;;;;;;5031923;27;20084;-79
2021/12/09 00:39:43;;;;;;;11.77;7.30;;;;;;;;;;5056946;27;20065;-79
2021/12/09 00:42:10;;;;;;;12.25;7.53;;;;;;;;;;5056203;27;20047;-79
2021/12/09 00:44:36;;;;;;;8.85;6.80;;;;;;;;;;5041440;28;20043;-79
2021/12/09 00:47:02;;;;;;;13.05;6.88;;;;;;;;;;5039749;27;20478;-78
2021/12/09 00:49:30;;;;;;;13.93;7.40;;;;;;;;;;5042934;27;20070;-79
2021/12/09 00:51:57;;;;;;;13.75;7.68;;;;;;;;;;5040373;28;20043;-79
2021/12/09 00:54:23;;;;;;;13.48;8.32;;;;;;;;;;5036961;27;20436;-79
2021/12/09 00:56:52;;;;;;;14.45;7.57;;;;;;;;;;5058088;27;20065;-79
2021/12/09 00:59:19;;;;;;;12.15;7.80;;;;;;;;;;5069839;28;20155;-79
2021/12/09 01:01:45;;;;;;;15.80;8.63;;;;;;;;;;5058214;28;20339;-78
2021/12/09 01:04:11;;;;;;;13.32;8.05;;;;;;;;;;5037175;27;20039;-78
2021/12/09 01:06:40;;;;;;;12.45;7.40;;;;;;;;;;5055967;28;20047;-78
2021/12/09 01:09:06;;;;;;;14.20;7.80;;;;;;;;;;5037416;27;20434;-78
2021/12/09 01:11:32;;;;;;;13.55;7.95;;;;;;;;;;5071099;27;20074;-78
2021/12/09 01:13:58;;;;;;;14.80;7.60;;;;;;;;;;5055249;27;20063;-78
2021/12/09 01:16:26;;;;;;;13.77;7.80;;;;;;;;;;5052929;27;20127;-78
2021/12/09 01:18:56;;;;;;;14.02;7.85;;;;;;;;;;5043851;27;20038;-78
2021/12/09 01:21:23;;;;;;;12.32;7.78;;;;;;;;;;5053777;27;20098;-78
2021/12/09 01:23:49;;;;;;;13.52;7.85;;;;;;;;;;5037860;27;20478;-78
2021/12/09 01:26:17;;;;;;;16.48;8.15;;;;;;;;;;5036325;27;20039;-78
2021/12/09 01:28:49;;;;;;;;;;;;;;;;;;5069562;28;20047;-78
2021/12/09 01:31:23;;;;;;;16.27;8.70;;;;;;;;;;5050678;27;19924;-78
2021/12/09 01:33:51;;;;;;;15.20;8.65;;;;;;;;;;5069872;27;20059;-78
2021/12/09 01:36:17;;;;;;;12.50;9.20;;;;;;;;;;5049659;28;20044;-78
2021/12/09 01:38:43;;;;;;;14.52;9.75;;;;;;;;;;5052890;28;20560;-78
2021/12/09 01:41:13;;;;;;;12.30;8.75;;;;;;;;;;5063583;27;20052;-79
2021/12/09 01:43:39;;;;;;;18.30;9.45;;;;;;;;;;5038690;27;20054;-78
2021/12/09 01:46:23;;;;;;;16.45;9.63;;;;;;;;;;5034184;28;20043;-78
2021/12/09 01:48:50;;;;;;;14.75;9.98;;;;;;;;;;5036245;28;20036;-78
2021/12/09 01:51:17;;;;;;;12.23;9.10;;;;;;;;;;5034976;28;20394;-78
2021/12/09 01:53:53;;;;;;;16.25;9.07;;;;;;;;;;5040297;28;20069;-78
2021/12/09 01:56:23;;;;;;;17.90;9.15;;;;;;;;;;5051685;28;20805;-78
2021/12/09 01:58:58;;;;;;;17.27;9.93;;;;;;;;;;5085639;27;20127;-78
2021/12/09 02:01:24;;;;;;;17.50;9.23;;;;;;;;;;5048645;28;20052;-78
2021/12/09 02:03:51;;;;;;;15.82;9.88;;;;;;;;;;5058422;28;20142;-79
2021/12/09 02:06:17;;;;;;;13.68;9.15;;;;;;;;;;5026148;27;20048;-79
2021/12/09 02:08:51;;;;;;;14.02;9.30;;;;;;;;;;5038838;27;20039;-79
2021/12/09 02:11:20;;;;;;;17.50;9.90;;;;;;;;;;5048198;28;20095;-79
2021/12/09 02:13:46;;;;;;;;;;;;;;;;;;5066171;27;20035;-79
2021/12/09 02:16:14;;;;;;;17.80;9.82;;;;;;;;;;5065322;27;20354;-79
2021/12/09 02:18:43;;;;;;;16.50;9.13;;;;;;;;;;5035634;27;20437;-79
2021/12/09 02:21:12;;;;;;;17.10;10.82;;;;;;;;;;5034019;27;20525;-79
2021/12/09 02:23:41;;;;;;;15.98;10.30;;;;;;;;;;5034596;28;20820;-79
2021/12/09 02:26:08;;;;;;;14.68;10.32;;;;;;;;;;5054462;28;20125;-79
2021/12/09 02:28:34;;;;;;;17.35;10.27;;;;;;;;;;5052761;28;20167;-79
2021/12/09 02:31:08;;;;;;;15.13;9.80;;;;;;;;;;5049760;27;20036;-79
2021/12/09 02:33:36;;;;;;;17.45;11.32;;;;;;;;;;5055464;28;20048;-79
2021/12/09 02:36:03;;;;;;;16.30;10.70;;;;;;;;;;5051590;28;20043;-79
2021/12/09 02:38:29;;;;;;;15.80;11.32;;;;;;;;;;5037491;28;20043;-79
2021/12/09 02:40:58;;;;;;;14.88;10.25;;;;;;;;;;5038060;28;20058;-79
2021/12/09 02:43:28;;;;;;;19.30;11.63;;;;;;;;;;5055448;28;20055;-79
2021/12/09 02:45:59;;;;;;;15.40;11.80;;;;;;;;;;5035040;28;20043;-79
2021/12/09 02:48:28;;;;;;;16.25;11.02;;;;;;;;;;5068981;28;20384;-79
2021/12/09 02:50:55;;;;;;;15.15;10.60;;;;;;;;;;5058687;27;20047;-79
2021/12/09 02:53:23;;;;;;;21.42;12.43;;;;;;;;;;5036924;28;20135;-79
2021/12/09 02:55:53;;;;;;;18.77;12.75;;;;;;;;;;5062604;27;20066;-80
2021/12/09 02:58:22;;;;;;;18.77;11.20;;;;;;;;;;5050736;28;20131;-80
2021/12/09 03:01:00;;;;;;;20.88;11.98;;;;;;;;;;5053690;27;20057;-79
2021/12/09 03:03:27;;;;;;;;;;;;;;;;;;5056706;28;20436;-79
2021/12/09 03:06:04;;;;;;;20.63;11.75;;;;;;;;;;5075407;28;20329;-79
2021/12/09 03:08:37;;;;;;;18.58;12.45;;;;;;;;;;5042345;28;20051;-79
2021/12/09 03:11:07;;;;;;;21.33;12.60;;;;;;;;;;5082164;27;20122;-79
2021/12/09 03:13:34;;;;;;;20.20;13.05;;;;;;;;;;5052940;28;20036;-79
2021/12/09 03:16:02;;;;;;;22.67;13.52;;;;;;;;;;5053860;28;20447;-78
2021/12/09 03:18:28;;;;;;;17.02;12.25;;;;;;;;;;5057174;28;20046;-79
2021/12/09 03:20:54;;;;;;;21.70;14.00;;;;;;;;;;5053646;28;20513;-79
2021/12/09 03:23:22;;;;;;;21.83;13.35;;;;;;;;;;5069467;28;20062;-79
2021/12/09 03:25:48;;;;;;;20.55;12.95;;;;;;;;;;5074939;28;20042;-79
2021/12/09 03:28:14;;;;;;;22.55;12.27;;;;;;;;;;5038334;28;20064;-79
2021/12/09 03:30:40;;;;;;;21.85;12.95;;;;;;;;;;5034957;28;20059;-79
2021/12/09 03:33:06;;;;;;;18.80;13.38;;;;;;;;;;5051859;28;20036;-80
2021/12/09 03:35:35;;;;;;;21.10;13.07;;;;;;;;;;5054487;28;20052;-79
2021/12/09 03:38:01;;;;;;;19.17;12.65;;;;;;;;;;5064475;28;20456;-79
2021/12/09 03:40:27;;;;;;;23.75;12.90;;;;;;;;;;5072705;28;20425;-79
2021/12/09 03:42:54;;;;;;;25.70;13.02;;;;;;;;;;5016550;28;20335;-80
2021/12/09 03:45:20;;;;;;;18.63;12.68;;;;;;;;;;5032220;28;20939;-80
2021/12/09 03:47:46;;;;;;;24.38;14.18;;;;;;;;;;5046590;28;20040;-80
2021/12/09 03:50:12;;;;;;;19.50;12.57;;;;;;;;;;5048078;28;20371;-81
2021/12/09 03:52:41;;;;;;;19.35;12.38;;;;;;;;;;5036763;28;20063;-81
2021/12/09 03:55:08;;;;;;;19.58;12.90;;;;;;;;;;5057490;28;20471;-81
2021/12/09 03:57:36;;;;;;;16.02;12.68;;;;;;;;;;5023055;28;20044;-81
2021/12/09 04:00:07;;;;;;;18.65;13.23;;;;;;;;;;5065051;28;20116;-81
2021/12/09 04:02:36;;;;;;;19.65;12.88;;;;;;;;;;5039715;28;20051;-81
2021/12/09 04:05:05;;;;;;;20.27;13.88;;;;;;;;;;5033859;28;20399;-80
2021/12/09 04:07:31;;;;;;;21.65;14.32;;;;;;;;;;5076415;28;20048;-81
2021/12/09 04:09:57;;;;;;;19.00;12.85;;;;;;;;;;5024077;28;20442;-81
2021/12/09 04:12:23;;;;;;;22.73;13.80;;;;;;;;;;5036661;28;20048;-81
2021/12/09 04:14:49;;;;;;;20.50;13.70;;;;;;;;;;5056390;28;20048;-81
2021/12/09 04:17:15;;;;;;;18.70;13.88;;;;;;;;;;5032937;28;20083;-81
2021/12/09 04:19:47;;;;;;;21.48;13.82;;;;;;;;;;5072808;28;20044;-81
2021/12/09 04:22:14;;;;;;;19.15;13.23;;;;;;;;;;5035780;28;20089;-81
2021/12/09 04:24:40;;;;;;;23.98;13.60;;;;;;;;;;5042754;28;20078;-81
2021/12/09 04:27:06;;;;;;;21.60;12.63;;;;;;;;;;5039320;28;20059;-81
2021/12/09 04:29:32;;;;;;;17.85;13.50;;;;;;;;;;5057756;28;20460;-81
2021/12/09 04:32:00;;;;;;;19.92;13.13;;;;;;;;;;5039815;28;20067;-81
2021/12/09 04:34:27;;;;;;;20.85;13.40;;;;;;;;;;5073792;28;20083;-81
2021/12/09 04:36:53;;;;;;;24.08;13.40;;;;;;;;;;5035039;28;20040;-81
2021/12/09 04:39:19;;;;;;;19.85;14.10;;;;;;;;;;5034435;28;20076;-81
2021/12/09 04:41:45;;;;;;;21.23;12.07;;;;;;;;;;5046187;28;20401;-81
2021/12/09 04:44:11;;;;;;;19.17;13.88;;;;;;;;;;5032910;28;20139;-82
2021/12/09 04:46:37;;;;;;;20.70;13.23;;;;;;;;;;5018396;28;20623;-82
2021/12/09 04:49:06;;;;;;;19.98;13.85;;;;;;;;;;5038046;28;20105;-81
2021/12/09 04:51:32;;;;;;;;;;;;;;;;;;5042737;28;20120;-82
2021/12/09 04:53:58;;;;;;;17.45;11.13;;;;;;;;;;5043315;28;19977;-81
2021/12/09 04:56:24;;;;;;;18.38;12.13;;;;;;;;;;5040598;28;20096;-82
2021/12/09 04:58:51;;;;;;;22.52;13.45;;;;;;;;;;5025169;28;20039;-81
2021/12/09 05:01:17;;;;;;;18.85;12.73;;;;;;;;;;5033928;28;20055;-82
2021/12/09 05:03:46;;;;;;;18.92;13.35;;;;;;;;;;5075887;28;20047;-81
2021/12/09 05:06:12;;;;;;;23.00;13.23;;;;;;;;;;5054457;28;20457;-80
2021/12/09 05:08:44;;;;;;;18.40;13.65;;;;;;;;;;5036137;28;20452;-81
2021/12/09 05:11:16;;;;;;;21.35;12.43;;;;;;;;;;5070134;28;20042;-81
2021/12/09 05:13:42;;;;;;;20.50;12.93;;;;;;;;;;5025796;28;20051;-81
2021/12/09 05:16:09;;;;;;;21.42;13.60;;;;;;;;;;5020729;28;20327;-82
2021/12/09 05:18:37;;;;;;;21.15;13.43;;;;;;;;;;5026786;28;20494;-81
2021/12/09 05:21:04;;;;;;;21.92;13.68;;;;;;;;;;5054887;28;20052;-82
2021/12/09 05:23:30;;;;;;;24.50;14.50;;;;;;;;;;5055687;28;20460;-81
2021/12/09 05:25:56;;;;;;;20.40;13.50;;;;;;;;;;5041413;28;20048;-82
2021/12/09 05:28:31;;;;;;;21.70;14.70;;;;;;;;;;5087643;28;20617;-82
2021/12/09 05:33:42;;;;;;;24.08;14.18;;;;;;;;;;5045732;28;20088;-82
2021/12/09 05:36:08;;;;;;;23.58;15.52;;;;;;;;;;5097419;27;20103;-82
2021/12/09 05:38:34;;;;;;;22.67;15.45;;;;;;;;;;5076490;27;20042;-82
2021/12/09 05:41:00;;;;;;;23.55;15.07;;;;;;;;;;5073820;27;20485;-82
2021/12/09 05:43:29;;;;;;;23.17;14.98;;;;;;;;;;5070413;28;20055;-82
2021/12/09 05:45:55;;;;;;;27.70;16.38;;;;;;;;;;5085524;27;20059;-82
2021/12/09 05:48:21;;;;;;;21.92;15.52;;;;;;;;;;5075756;28;20146;-81
2021/12/09 05:50:48;;;;;;;23.42;15.55;;;;;;;;;;5076591;27;20040;-81
2021/12/09 05:53:14;;;;;;;25.08;15.73;;;;;;;;;;5044206;27;20087;-81
2021/12/09 05:55:43;;;;;;;26.85;15.88;;;;;;;;;;5088411;27;20035;-81
2021/12/09 05:58:11;;;;;;;27.42;16.65;;;;;;;;;;5054611;28;20170;-81
2021/12/09 06:00:37;;;;;;;29.58;17.73;;;;;;;;;;5056047;27;20048;-81
2021/12/09 06:03:03;;;;;;;22.92;15.60;;;;;;;;;;5078612;27;20477;-81
2021/12/09 06:05:29;;;;;;;28.88;16.75;;;;;;;;;;5041127;27;20509;-81
2021/12/09 06:07:55;;;;;;;23.42;16.13;;;;;;;;;;5052760;28;22073;-81
2021/12/09 06:10:22;;;;;;;29.85;17.23;;;;;;;;;;5074220;27;22334;-81
2021/12/09 06:12:48;;;;;;;27.52;15.70;;;;;;;;;;5063965;27;20051;-81
2021/12/09 06:15:15;;;;;;;25.98;16.35;;;;;;;;;;5049750;27;20031;-81
2021/12/09 06:17:41;;;;;;;21.02;14.70;;;;;;;;;;5034667;27;20084;-81
2021/12/09 06:20:07;;;;;;;26.20;15.80;;;;;;;;;;5028441;28;20453;-81
2021/12/09 06:22:33;;;;;;;21.00;15.82;;;;;;;;;;5097343;27;20054;-81
2021/12/09 06:24:59;;;;;;;24.70;15.85;;;;;;;;;;5071758;28;20421;-80
2021/12/09 06:27:25;;;;;;;23.05;14.40;;;;;;;;;;5036744;28;20043;-81
2021/12/09 06:29:51;;;;;;;23.55;14.57;;;;;;;;;;5071203;28;20048;-81
2021/12/09 06:32:17;;;;;;;23.80;15.27;;;;;;;;;;5061077;28;20509;-80
2021/12/09 06:34:44;;;;;;;23.10;15.60;;;;;;;;;;5047889;27;20138;-81
2021/12/09 06:37:10;;;;;;;29.25;17.63;;;;;;;;;;5028909;28;20093;-81
2021/12/09 06:39:36;;;;;;;26.38;16.45;;;;;;;;;;5055981;27;20051;-80
2021/12/09 06:42:02;;;;;;;25.20;16.45;;;;;;;;;;5046830;28;20389;-80
2021/12/09 06:44:33;;;;;;;29.42;17.33;;;;;;;;;;5054847;27;20051;-82
2021/12/09 06:47:00;;;;;;;25.48;16.70;;;;;;;;;;5031354;28;20035;-79
2021/12/09 06:49:26;;;;;;;28.60;16.05;;;;;;;;;;5047216;28;20653;-80
2021/12/09 06:51:52;;;;;;;25.40;17.27;;;;;;;;;;5081533;27;20505;-79
2021/12/09 06:54:19;;;;;;;24.60;16.90;;;;;;;;;;5058561;28;20712;-83
2021/12/09 06:56:45;;;;;;;27.67;16.40;;;;;;;;;;5071208;28;20032;-82
2021/12/09 06:59:11;;;;;;;32.92;18.33;;;;;;;;;;5037597;28;20047;-82
2021/12/09 07:01:38;;;;;;;31.20;17.80;;;;;;;;;;5053063;28;20061;-79
2021/12/09 07:04:05;;;;;;;25.90;17.15;;;;;;;;;;5073675;28;20216;-80
2021/12/09 07:06:31;;;;;;;30.10;17.05;;;;;;;;;;5041556;28;20052;-80
2021/12/09 07:09:00;;;;;;;26.38;17.05;;;;;;;;;;5071292;28;20043;-81
2021/12/09 07:11:26;;;;;;;30.67;18.35;;;;;;;;;;5068111;28;20065;-81
2021/12/09 07:13:54;;;;;;;28.52;18.13;;;;;;;;;;5055804;28;20049;-81
2021/12/09 07:16:21;;;;;;;26.23;17.50;;;;;;;;;;5051927;28;20035;-80
2021/12/09 07:18:47;;;;;;;30.40;18.60;;;;;;;;;;5058004;28;20086;-79
2021/12/09 07:21:13;;;;;;;28.38;17.77;;;;;;;;;;5040546;28;20153;-80
2021/12/09 07:23:39;;;;;;;22.55;16.00;;;;;;;;;;5061233;28;20035;-81
2021/12/09 07:26:06;;;;;;;23.33;16.02;;;;;;;;;;5065384;28;20067;-81
2021/12/09 07:28:32;;;;;;;22.95;15.73;;;;;;;;;;5039563;28;20091;-80
2021/12/09 07:30:58;;;;;;;26.73;17.05;;;;;;;;;;5057779;28;20040;-80
2021/12/09 07:33:31;;;;;;;28.45;16.83;;;;;;;;;;5057279;28;20044;-81
2021/12/09 07:36:00;;;;;;;26.67;16.17;;;;;;;;;;5056190;28;20047;-82
2021/12/09 07:38:27;;;;;;;22.73;15.55;;;;;;;;;;5043931;27;20055;-81
2021/12/09 07:40:59;;;;;;;25.05;15.90;;;;;;;;;;5055278;28;20081;-80
2021/12/09 07:43:33;;;;;;;25.58;15.55;;;;;;;;;;5090040;27;20067;-80
2021/12/09 07:45:59;;;;;;;25.08;15.15;;;;;;;;;;5064287;28;20127;-80
2021/12/09 07:48:25;;;;;;;24.73;14.70;;;;;;;;;;5078541;28;20101;-80
2021/12/09 07:50:52;;;;;;;23.45;16.38;;;;;;;;;;5060740;28;20082;-80
2021/12/09 07:53:18;;;;;;;27.13;15.38;;;;;;;;;;5077351;28;20912;-80
2021/12/09 07:55:45;;;;;;;23.15;15.38;;;;;;;;;;5059525;28;20027;-80
2021/12/09 07:58:11;;;;;;;27.20;14.63;;;;;;;;;;5057165;28;20127;-80
2021/12/09 08:00:37;;;;;;;22.13;13.57;;;;;;;;;;5046971;28;20051;-80
2021/12/09 08:03:03;;;;;;;22.75;14.18;;;;;;;;;;5060737;28;20050;-80
2021/12/09 08:05:30;;;;;;;30.90;16.70;;;;;;;;;;5043291;28;20043;-80
2021/12/09 08:07:56;;;;;;;25.05;16.77;;;;;;;;;;5046222;28;20071;-80
2021/12/09 08:10:23;;;;;;;27.02;16.83;;;;;;;;;;5058419;27;20039;-80
2021/12/09 08:12:49;;;;;;;27.90;17.83;;;;;;;;;;5063872;28;20052;-80
2021/12/09 08:15:16;;;;;;;29.42;17.35;;;;;;;;;;5041614;28;20043;-80
2021/12/09 08:20:11;;;;;;;28.10;17.15;;;;;;;;;;5070257;27;20044;-80
2021/12/09 08:22:40;;;;;;;26.80;16.52;;;;;;;;;;5079861;28;20048;-80
2021/12/09 08:25:07;;;;;;;25.65;15.88;;;;;;;;;;5093509;27;20035;-80
2021/12/09 08:27:34;;;;;;;24.50;15.60;;;;;;;;;;5046045;28;20130;-79
2021/12/09 08:30:02;;;;;;;28.67;17.35;;;;;;;;;;5074581;27;20032;-80
2021/12/09 08:32:28;;;;;;;29.92;15.93;;;;;;;;;;5085093;28;20063;-80
2021/12/09 08:34:54;;;;;;;24.10;15.45;;;;;;;;;;5051939;28;20059;-79
2021/12/09 08:37:21;;;;;;;24.70;14.85;;;;;;;;;;5069978;28;20048;-80
2021/12/09 08:39:47;;;;;;;23.27;16.77;;;;;;;;;;5045641;28;20074;-79
2021/12/09 08:42:14;;;;;;;32.65;17.33;;;;;;;;;;5023496;28;20044;-80
2021/12/09 08:44:40;;;;;;;30.63;17.27;;;;;;;;;;5061758;28;20086;-79
2021/12/09 08:47:06;;;;;;;23.02;15.05;;;;;;;;;;5054014;28;20044;-79
2021/12/09 08:49:32;;;;;;;24.83;15.63;;;;;;;;;;5043650;28;20881;-79
2021/12/09 08:51:58;;;;;;;30.20;16.15;;;;;;;;;;5028506;28;20036;-80
2021/12/09 08:54:28;;;;;;;25.63;15.75;;;;;;;;;;5052260;28;20181;-80
2021/12/09 08:56:54;;;;;;;27.20;16.77;;;;;;;;;;5040249;28;20128;-80
2021/12/09 08:59:21;;;;;;;27.13;16.77;;;;;;;;;;5023046;28;20071;-80
2021/12/09 09:01:47;;;;;;;23.45;15.15;;;;;;;;;;5044412;28;20043;-80
2021/12/09 09:04:13;;;;;;;21.83;14.70;;;;;;;;;;5071177;28;20053;-80
2021/12/09 09:06:49;;;;;;;24.50;16.40;;;;;;;;;;5073254;28;20098;-80
2021/12/09 09:09:15;;;;;;;24.67;14.63;;;;;;;;;;5040554;28;20056;-79
2021/12/09 09:11:41;;;;;;;27.75;15.38;;;;;;;;;;5040247;28;20046;-80
2021/12/09 09:14:08;;;;;;;26.23;14.88;;;;;;;;;;5041252;28;20040;-80
2021/12/09 09:16:34;;;;;;;23.05;14.27;;;;;;;;;;5044141;28;20043;-80
2021/12/09 09:19:00;;;;;;;27.02;13.65;;;;;;;;;;5045511;28;20040;-79
2021/12/09 09:21:28;;;;;;;17.52;12.48;;;;;;;;;;5041544;28;20051;-80
2021/12/09 09:23:56;;;;;;;16.05;11.18;;;;;;;;;;5077386;28;20044;-80
2021/12/09 09:26:22;;;;;;;15.88;10.75;;;;;;;;;;5072101;28;20421;-81
2021/12/09 09:28:48;;;;;;;18.30;10.95;;;;;;;;;;5041535;28;20063;-80
2021/12/09 09:31:14;;;;;;;15.95;10.63;;;;;;;;;;5041753;28;20044;-80
2021/12/09 09:33:41;;;;;;;13.90;9.52;;;;;;;;;;5027154;28;20044;-80
2021/12/09 09:36:07;;;;;;;14.85;9.70;;;;;;;;;;5036646;28;20049;-80
2021/12/09 09:38:36;;;;;;;16.45;9.70;;;;;;;;;;5024004;28;20100;-81
2021/12/09 09:41:08;;;;;;;15.13;9.10;;;;;;;;;;5023665;28;20537;-80
2021/12/09 09:46:17;;;;;;;12.95;8.88;;;;;;;;;;5050809;28;20048;-81
2021/12/09 09:48:43;;;;;;;16.77;9.55;;;;;;;;;;5026985;28;20044;-81
2021/12/09 09:51:10;;;;;;;14.20;8.73;;;;;;;;;;5037343;28;20175;-81
2021/12/09 09:53:41;;;;;;;13.60;7.15;;;;;;;;;;5053284;28;20067;-82
2021/12/09 09:56:13;;;;;;;10.35;7.22;;;;;;;;;;5018921;28;20498;-81
2021/12/09 09:58:43;;;;;;;9.05;6.38;;;;;;;;;;5036899;28;20044;-81
2021/12/09 10:01:09;;;;;;;9.27;6.78;;;;;;;;;;5019977;28;20046;-81
2021/12/09 10:03:41;;;;;;;11.52;5.88;;;;;;;;;;5025048;28;20139;-81
2021/12/09 10:06:07;;;;;;;9.45;5.63;;;;;;;;;;5018565;28;20036;-81
2021/12/09 10:08:33;;;;;;;12.27;6.28;;;;;;;;;;5039917;28;20067;-81
2021/12/09 10:10:59;;;;;;;10.70;5.75;;;;;;;;;;5040330;28;20087;-81
2021/12/09 10:13:29;;;;;;;11.75;5.60;;;;;;;;;;5043007;28;20079;-81
2021/12/09 10:15:56;;;;;;;9.98;5.30;;;;;;;;;;5036721;28;20078;-80
2021/12/09 10:18:38;;;;;;;8.38;5.70;;;;;;;;;;5017363;28;20044;-80
2021/12/09 10:21:05;;;;;;;8.05;5.35;;;;;;;;;;5035661;28;20426;-80
2021/12/09 10:23:35;;;;;;;6.90;4.60;;;;;;;;;;5041509;28;20097;-80
2021/12/09 10:26:15;;;;;;;10.40;5.68;;;;;;;;;;5036344;28;20040;-80
2021/12/09 10:28:44;;;;;;;10.38;5.50;;;;;;;;;;5050436;28;20467;-80
2021/12/09 10:31:14;;;;;;;9.98;5.05;;;;;;;;;;5030165;28;20494;-81
2021/12/09 10:34:05;;;;;;;7.93;4.72;;;;;;;;;;5041917;28;20424;-80
2021/12/09 10:36:43;;;;;;;8.65;5.72;;;;;;;;;;5075476;28;20035;-80
2021/12/09 10:39:20;;;;;;;9.43;5.82;;;;;;;;;;5069429;28;20513;-80
2021/12/09 10:41:46;;;;;;;13.07;5.72;;;;;;;;;;5045144;28;20438;-80
2021/12/09 10:44:13;;;;;;;10.40;5.88;;;;;;;;;;5040743;28;20097;-81
2021/12/09 10:46:52;;;;;;;11.20;5.88;;;;;;;;;;5044781;28;20081;-80
2021/12/09 10:49:19;;;;;;;13.43;5.63;;;;;;;;;;5070372;28;20048;-85
2021/12/09 10:51:56;;;;;;;12.50;5.90;;;;;;;;;;5058475;28;20044;-84
2021/12/09 10:54:57;;;;;;;13.32;6.75;;;;;;;;;;5040583;28;20092;-84
2021/12/09 10:57:28;;;;;;;8.27;6.47;;;;;;;;;;5017587;28;20062;-85
2021/12/09 10:59:54;;;;;;;12.80;6.78;;;;;;;;;;5075422;28;20044;-85
2021/12/09 11:02:21;;;;;;;10.65;6.97;;;;;;;;;;5041770;28;20539;-84
2021/12/09 11:05:01;;;;;;;9.43;6.68;;;;;;;;;;5062822;28;20040;-88
2021/12/09 11:07:31;;;;;;;11.20;6.57;;;;;;;;;;5061224;28;20046;-85
2021/12/09 11:10:17;;;;;;;11.88;6.65;;;;;;;;;;5059826;28;20043;-82
2021/12/09 11:12:53;;;;;;;10.05;7.35;;;;;;;;;;5046815;28;20044;-84
2021/12/09 11:15:21;;;;;;;12.95;7.25;;;;;;;;;;5057759;28;20044;-84
2021/12/09 11:17:50;;;;;;;16.05;8.40;;;;;;;;;;5045423;28;20048;-85
2021/12/09 11:20:36;;;;;;;16.55;8.80;;;;;;;;;;5073266;28;20250;-82
2021/12/09 11:23:25;;;;;;;13.68;8.80;;;;;;;;;;5056079;28;20538;-82
2021/12/09 11:25:51;;;;;;;14.00;9.45;;;;;;;;;;5072401;28;20401;-82
2021/12/09 11:28:17;;;;;;;16.33;9.68;;;;;;;;;;5057013;28;20497;-83
2021/12/09 11:31:06;;;;;;;19.27;10.63;;;;;;;;;;5063077;28;20500;-81
2021/12/09 11:33:36;;;;;;;20.75;10.30;;;;;;;;;;5060494;28;20046;-82
2021/12/09 11:36:02;;;;;;;22.83;11.20;;;;;;;;;;5042171;28;20084;-81
2021/12/09 11:38:53;;;;;;;19.30;10.90;;;;;;;;;;5058558;28;20067;-82
2021/12/09 11:41:30;;;;;;;19.15;10.98;;;;;;;;;;5061770;28;20059;-82
2021/12/09 11:43:56;;;;;;;18.67;11.52;;;;;;;;;;5047236;28;20388;-81
2021/12/09 11:46:22;;;;;;;21.80;12.20;;;;;;;;;;5054045;28;20051;-81
2021/12/09 11:48:49;;;;;;;24.83;12.25;;;;;;;;;;5041264;28;20065;-81
2021/12/09 11:51:15;;;;;;;19.95;12.77;;;;;;;;;;5040959;28;20048;-82
2021/12/09 11:53:56;;;;;;;21.20;12.68;;;;;;;;;;5070376;28;20066;-81
2021/12/09 11:56:34;;;;;;;20.85;10.90;;;;;;;;;;5053471;28;20043;-80
2021/12/09 12:21:02;;;;;;;24.23;12.32;;;;;;;;;;5074579;28;20055;-80
2021/12/09 12:32:38;;;;;;;19.52;12.25;;;;;;;;;;5081608;28;20091;-80
2021/12/09 12:35:18;;;;;;;28.25;13.18;;;;;;;;;;5064114;28;20055;-80
2021/12/09 12:37:54;;;;;;;19.40;12.77;;;;;;;;;;5061183;28;20082;-79
2021/12/09 12:40:31;;;;;;;19.73;13.25;;;;;;;;;;5063168;28;21780;-80
2021/12/09 12:43:02;;;;;;;17.48;12.35;;;;;;;;;;5061744;28;20169;-80
2021/12/09 12:48:17;;;;;;;21.02;13.13;;;;;;;;;;5067446;28;20494;-80
2021/12/09 12:51:02;;;;;;;18.25;13.07;;;;;;;;;;5053006;28;20048;-79
2021/12/09 12:53:46;;;;;;;21.88;13.90;;;;;;;;;;5080088;28;20058;-79
2021/12/09 12:56:19;;;;;;;19.17;12.35;;;;;;;;;;5075979;28;20187;-79
2021/12/09 12:59:19;;;;;;;26.10;13.75;;;;;;;;;;5049885;28;20116;-79
2021/12/09 13:05:06;;;;;;;21.73;13.60;;;;;;;;;;5081130;28;20521;-78
2021/12/09 13:10:44;;;;;;;21.92;12.65;;;;;;;;;;5069362;28;20047;-79
2021/12/09 13:15:59;;;;;;;18.63;13.68;;;;;;;;;;5100848;28;20039;-86
2021/12/09 13:21:32;;;;;;;20.73;13.02;;;;;;;;;;5078522;28;20066;-86
2021/12/09 13:24:17;;;;;;;23.45;13.23;;;;;;;;;;5081754;28;20046;-86
2021/12/09 13:27:52;;;;;;;23.13;13.38;;;;;;;;;;5063603;28;20499;-86
2021/12/09 13:39:13;;;;;;;23.33;15.45;;;;;;;;;;5065390;28;20047;-85
2021/12/09 13:47:15;;;;;;;26.38;16.48;;;;;;;;;;5071872;28;20076;-84
2021/12/09 13:49:54;;;;;;;27.50;15.70;;;;;;;;;;5049396;28;20371;-85
2021/12/09 13:55:06;;;;;;;28.00;15.77;;;;;;;;;;5075717;28;20322;-84
2021/12/09 13:57:35;;;;;;;32.85;18.13;;;;;;;;;;5049137;28;20035;-84
2021/12/09 14:00:04;;;;;;;29.60;17.05;;;;;;;;;;5060934;28;20040;-84
2021/12/09 14:02:30;;;;;;;29.77;16.58;;;;;;;;;;5048896;28;20393;-85
2021/12/09 14:04:58;;;;;;;27.63;16.02;;;;;;;;;;5068157;28;20492;-84
2021/12/09 14:07:28;;;;;;;25.63;16.88;;;;;;;;;;5096808;28;20043;-84
2021/12/09 14:10:02;;;;;;;33.05;17.63;;;;;;;;;;5066935;28;20092;-84
2021/12/09 14:12:32;;;;;;;29.08;16.33;;;;;;;;;;5079946;28;20039;-84
2021/12/09 14:15:11;;;;;;;26.25;17.02;;;;;;;;;;5081284;28;20142;-83
2021/12/09 14:17:40;;;;;;;28.67;16.45;;;;;;;;;;5062426;28;20047;-84
2021/12/09 14:20:15;;;;;;;32.10;16.67;;;;;;;;;;5063429;28;20366;-81
2021/12/09 14:22:41;;;;;;;29.38;16.52;;;;;;;;;;5065226;28;20044;-82
2021/12/09 14:25:11;;;;;;;24.38;16.52;;;;;;;;;;5076926;28;20142;-82
2021/12/09 14:27:37;;;;;;;32.25;16.70;;;;;;;;;;5083098;28;20082;-82
2021/12/09 14:30:03;;;;;;;26.20;16.17;;;;;;;;;;5064652;28;20375;-81
2021/12/09 14:32:31;;;;;;;27.02;15.90;;;;;;;;;;5096604;28;20067;-82
2021/12/09 14:34:58;;;;;;;28.08;15.98;;;;;;;;;;5083788;28;20044;-82
2021/12/09 14:37:24;;;;;;;24.05;16.15;;;;;;;;;;5095082;28;20121;-81
2021/12/09 14:39:53;;;;;;;27.13;16.35;;;;;;;;;;5101270;28;20355;-82
2021/12/09 14:42:20;;;;;;;23.30;15.60;;;;;;;;;;5062662;28;21188;-82
2021/12/09 14:44:57;;;;;;;28.00;16.52;;;;;;;;;;5079558;28;20127;-82
2021/12/09 14:47:23;;;;;;;25.85;16.50;;;;;;;;;;5059346;28;20432;-81
2021/12/09 14:49:50;;;;;;;27.35;15.52;;;;;;;;;;5078555;28;20427;-81
2021/12/09 14:52:46;;;;;;;31.45;18.30;;;;;;;;;;5059904;28;20386;-81
2021/12/09 14:55:31;;;;;;;24.75;16.23;;;;;;;;;;5060813;28;20206;-82
2021/12/09 14:57:57;;;;;;;26.27;16.90;;;;;;;;;;5059377;28;20131;-82
2021/12/09 15:00:35;;;;;;;29.15;16.63;;;;;;;;;;5091665;28;20823;-83
2021/12/09 15:03:02;;;;;;;27.87;16.40;;;;;;;;;;5062053;28;20139;-82
2021/12/09 15:05:30;;;;;;;27.03;15.80;;;;;;;;;;5054903;28;20124;-82
2021/12/09 15:08:04;;;;;;;27.13;16.70;;;;;;;;;;5066931;28;20056;-83
2021/12/09 15:10:32;;;;;;;25.65;16.77;;;;;;;;;;5054049;28;20448;-83
2021/12/09 15:12:59;;;;;;;26.33;18.00;;;;;;;;;;5058185;27;20068;-83
2021/12/09 15:15:26;;;;;;;28.75;16.42;;;;;;;;;;5057738;28;20042;-82
2021/12/09 15:17:56;;;;;;;30.92;16.25;;;;;;;;;;5071733;28;20047;-82
2021/12/09 15:20:25;;;;;;;23.08;15.73;;;;;;;;;;5051477;28;20043;-82
2021/12/09 15:23:16;;;;;;;23.60;15.18;;;;;;;;;;5042012;28;20101;-82
2021/12/09 15:25:40;;;;;;;25.30;17.23;;;;;;;;;;5058149;28;20154;-83
2021/12/09 15:28:17;;;;;;;29.27;18.45;;;;;;;;;;5050944;28;20048;-83
2021/12/09 15:30:52;;;;;;;26.88;16.45;;;;;;;;;;5059926;28;20489;-83
2021/12/09 15:33:26;;;;;;;22.55;15.95;;;;;;;;;;5052021;28;20121;-83
2021/12/09 15:36:03;;;;;;;22.38;15.85;;;;;;;;;;5071531;28;20074;-81
2021/12/09 15:38:29;;;;;;;24.55;16.70;;;;;;;;;;5085757;28;23507;-82
2021/12/09 15:40:55;;;;;;;24.67;15.18;;;;;;;;;;5070894;28;20052;-82
2021/12/09 15:43:22;;;;;;;24.45;16.40;;;;;;;;;;5051560;28;20100;-82
2021/12/09 15:45:56;;;;;;;26.02;16.15;;;;;;;;;;5091904;28;20460;-83
2021/12/09 15:48:23;;;;;;;25.42;16.20;;;;;;;;;;5084634;28;20051;-83